Time;durP1;ratioP1;P1;durP2;ratioP2;P2;SDS_P1;SDS_P2;PMS_P1;PMS_P2;Temp;Humidity;BMP_temperature;BMP_pressure;BME280_temperature;BME280_humidity;BME280_pressure;Samples;Min_cycle;Max_cycle;Signal;HPM_P1;HPM_P2
2023/07/05 00:02:20;;;;;;;22.30;15.63;;;;;;;22.38;87.00;94768.53;4936685;29;20620;-83
2023/07/05 00:04:45;;;;;;;21.00;13.57;;;;;;;22.38;87.01;94767.75;4936638;29;20593;-83
2023/07/05 00:07:11;;;;;;;35.08;22.63;;;;;;;22.28;86.88;94759.81;4935177;29;20560;-83
2023/07/05 00:09:36;;;;;;;23.92;17.42;;;;;;;22.20;87.04;94750.50;4936226;29;20258;-83
2023/07/05 00:12:02;;;;;;;16.55;12.55;;;;;;;22.36;87.28;94788.69;4936132;29;20226;-83
2023/07/05 00:14:28;;;;;;;17.70;11.45;;;;;;;22.35;87.40;94781.72;4935871;29;20210;-83
2023/07/05 00:16:54;;;;;;;28.38;19.48;;;;;;;21.85;87.45;94700.75;4935823;29;20175;-83
2023/07/05 00:19:19;;;;;;;21.80;14.63;;;;;;;21.98;87.48;94723.41;4935853;29;20255;-83
2023/07/05 00:21:44;;;;;;;24.85;14.23;;;;;;;22.34;86.98;94782.81;4936018;29;20725;-83
2023/07/05 00:24:10;;;;;;;22.13;14.25;;;;;;;22.08;87.29;94747.44;4935654;29;20183;-83
2023/07/05 00:26:35;;;;;;;21.98;15.20;;;;;;;22.27;87.25;94777.78;4935770;29;20239;-83
2023/07/05 00:29:01;;;;;;;16.13;12.35;;;;;;;22.32;86.98;94791.13;4935642;29;20182;-83
2023/07/05 00:31:26;;;;;;;18.57;13.70;;;;;;;22.26;87.12;94783.44;4934573;29;20421;-83
2023/07/05 00:33:52;;;;;;;17.60;10.88;;;;;;;21.92;86.44;94732.56;4935745;29;20331;-83
2023/07/05 00:36:17;;;;;;;19.42;10.80;;;;;;;22.15;86.82;94783.53;4935588;29;20194;-83
2023/07/05 00:38:43;;;;;;;15.43;10.85;;;;;;;22.12;87.68;94786.81;4935507;29;20179;-83
2023/07/05 00:41:08;;;;;;;16.52;11.40;;;;;;;22.13;88.02;94798.34;4935346;29;20755;-83
2023/07/05 00:43:33;;;;;;;13.95;10.38;;;;;;;21.95;88.18;94775.69;4936191;29;20167;-83
2023/07/05 00:46:31;;;;;;;13.18;9.20;;;;;;;22.13;88.29;94801.81;4935517;29;20597;-83
2023/07/05 00:49:04;;;;;;;13.77;8.30;;;;;;;21.88;87.83;94761.81;4922895;29;20615;-83
2023/07/05 00:51:42;;;;;;;14.25;9.32;;;;;;;22.16;88.03;94803.13;4934207;29;20727;-83
2023/07/05 00:54:08;;;;;;;13.15;8.65;;;;;;;22.08;87.82;94791.13;4935863;29;20198;-83
2023/07/05 00:56:56;;;;;;;11.25;7.82;;;;;;;22.06;88.27;94782.56;4935166;29;20179;-83
2023/07/05 00:59:26;;;;;;;10.18;7.70;;;;;;;21.86;87.92;94750.59;4929291;29;20175;-83
2023/07/05 01:01:51;;;;;;;13.10;8.05;;;;;;;22.12;88.22;94789.50;4942031;29;20175;-83
2023/07/05 01:04:18;;;;;;;12.63;8.65;;;;;;;21.87;87.97;94746.81;4935255;29;20198;-84
2023/07/05 01:06:44;;;;;;;9.90;7.38;;;;;;;22.01;88.16;94779.94;4935543;29;20174;-83
2023/07/05 01:09:10;;;;;;;16.42;9.02;;;;;;;21.75;88.81;94746.41;4935044;29;20273;-84
2023/07/05 01:12:03;;;;;;;11.70;7.95;;;;;;;21.91;88.97;94774.66;4935506;29;20644;-84
2023/07/05 01:14:48;;;;;;;11.38;8.60;;;;;;;21.74;89.09;94758.19;4934099;29;20441;-83
2023/07/05 01:17:23;;;;;;;11.38;7.93;;;;;;;21.87;89.15;94776.31;4935650;29;20163;-83
2023/07/05 01:20:01;;;;;;;10.30;7.93;;;;;;;21.82;89.15;94766.44;4933579;29;20182;-83
2023/07/05 01:22:51;;;;;;;11.45;7.60;;;;;;;21.80;88.62;94767.78;4935263;29;20193;-83
2023/07/05 01:25:48;;;;;;;15.98;8.10;;;;;;;21.79;89.19;94761.63;4935278;29;20167;-83
2023/07/05 01:28:55;;;;;;;9.77;7.75;;;;;;;21.73;89.12;94748.56;4934918;29;20242;-83
2023/07/05 01:31:44;;;;;;;10.77;8.25;;;;;;;21.65;89.25;94738.47;4921966;29;20225;-84
2023/07/05 01:34:14;;;;;;;11.77;8.02;;;;;;;21.79;89.49;94755.50;4949327;29;20210;-83
2023/07/05 01:36:40;;;;;;;10.20;7.55;;;;;;;21.81;89.29;94756.78;4934857;29;20613;-83
2023/07/05 01:39:05;;;;;;;11.80;8.27;;;;;;;21.80;89.83;94749.03;4934618;29;20194;-83
2023/07/05 01:41:31;;;;;;;12.05;8.07;;;;;;;21.79;89.54;94748.22;4934595;29;20663;-82
2023/07/05 01:43:57;;;;;;;11.23;8.15;;;;;;;21.40;89.19;94685.91;4934488;29;20186;-83
2023/07/05 01:46:25;;;;;;;13.20;7.47;;;;;;;21.77;89.58;94744.25;4934576;29;20215;-83
2023/07/05 01:49:16;;;;;;;13.30;8.52;;;;;;;21.81;89.35;94745.25;4934684;29;20643;-83
2023/07/05 01:52:00;;;;;;;10.85;8.02;;;;;;;21.82;90.02;94744.97;4930002;29;20194;-83
2023/07/05 01:54:34;;;;;;;9.20;7.43;;;;;;;21.83;89.62;94745.78;4949371;29;20198;-83
2023/07/05 01:57:07;;;;;;;10.90;8.18;;;;;;;21.78;89.49;94738.59;4934697;29;20165;-82
2023/07/05 01:59:39;;;;;;;11.20;7.80;;;;;;;21.83;89.75;94748.47;4934954;29;20168;-82
2023/07/05 02:02:07;;;;;;;13.93;8.30;;;;;;;21.80;89.47;94744.47;4935028;29;20190;-83
2023/07/05 02:04:35;;;;;;;13.30;8.80;;;;;;;21.75;89.33;94741.03;4934397;29;20174;-82
2023/07/05 02:07:03;;;;;;;9.80;7.57;;;;;;;21.51;89.56;94710.72;4932956;29;20899;-83
2023/07/05 02:09:29;;;;;;;13.98;7.95;;;;;;;21.70;90.04;94741.09;4933101;29;20297;-83
2023/07/05 02:11:56;;;;;;;13.38;7.68;;;;;;;21.62;89.96;94729.09;4934230;29;20262;-82
2023/07/05 02:14:22;;;;;;;12.40;8.10;;;;;;;21.19;90.50;94708.63;4934237;29;20218;-83
2023/07/05 02:16:48;;;;;;;13.23;8.23;;;;;;;21.06;91.51;94696.63;4934505;29;20624;-83
2023/07/05 02:19:14;;;;;;;16.40;9.13;;;;;;;21.00;91.54;94677.13;4933211;29;20190;-83
2023/07/05 02:21:39;;;;;;;12.10;8.07;;;;;;;21.30;91.59;94723.50;4934660;29;20171;-83
2023/07/05 02:24:05;;;;;;;11.07;8.30;;;;;;;20.97;91.36;94677.69;4934085;29;20179;-83
2023/07/05 02:26:30;;;;;;;9.85;7.47;;;;;;;21.26;91.49;94715.25;4934355;29;20667;-83
2023/07/05 02:28:56;;;;;;;12.25;8.38;;;;;;;21.38;91.43;94734.41;4934220;29;20175;-83
2023/07/05 02:31:21;;;;;;;12.02;7.75;;;;;;;21.22;90.94;94703.47;4936709;29;20654;-83
2023/07/05 02:33:47;;;;;;;12.75;8.73;;;;;;;21.40;91.29;94732.25;4937958;29;20190;-83
2023/07/05 02:36:14;;;;;;;11.65;7.43;;;;;;;21.37;91.18;94724.78;4937972;29;20250;-83
2023/07/05 02:38:40;;;;;;;13.18;7.93;;;;;;;21.36;90.88;94733.88;4937621;29;20179;-82
2023/07/05 02:41:07;;;;;;;11.07;7.65;;;;;;;21.25;91.55;94723.56;4937664;29;20537;-82
2023/07/05 02:43:32;;;;;;;11.60;7.95;;;;;;;21.32;92.07;94727.50;4937485;29;20212;-82
2023/07/05 02:45:58;;;;;;;12.50;8.77;;;;;;;21.33;92.10;94744.38;4937623;29;20421;-82
2023/07/05 02:48:23;;;;;;;10.52;8.10;;;;;;;21.33;91.66;94737.13;4937782;29;20219;-82
2023/07/05 02:50:48;;;;;;;11.23;8.67;;;;;;;21.01;91.10;94691.31;4937833;29;20475;-83
2023/07/05 02:53:14;;;;;;;13.85;8.90;;;;;;;21.27;91.31;94735.59;4937913;29;20222;-82
2023/07/05 02:55:39;;;;;;;12.88;7.90;;;;;;;21.22;91.42;94729.47;4937642;29;20262;-82
2023/07/05 02:58:04;;;;;;;11.30;8.70;;;;;;;21.19;91.83;94717.41;4937595;29;20261;-82
2023/07/05 03:00:30;;;;;;;12.18;8.88;;;;;;;21.10;92.60;94709.16;4937831;29;20238;-82
2023/07/05 03:02:57;;;;;;;12.65;8.85;;;;;;;21.11;92.40;94715.31;4937475;29;20218;-82
2023/07/05 03:05:22;;;;;;;11.77;8.57;;;;;;;20.96;92.70;94699.38;4937371;29;20251;-82
2023/07/05 03:07:48;;;;;;;14.02;8.57;;;;;;;21.12;92.79;94722.28;4937201;29;20265;-82
2023/07/05 03:10:13;;;;;;;24.52;9.35;;;;;;;21.15;92.92;94724.41;4936971;29;20225;-83
2023/07/05 03:12:40;;;;;;;18.70;8.25;;;;;;;21.15;92.78;94715.56;4936902;29;20175;-83
2023/07/05 03:15:06;;;;;;;12.60;8.63;;;;;;;21.14;91.93;94712.09;4937071;29;20694;-83
2023/07/05 03:17:32;;;;;;;12.05;8.68;;;;;;;20.85;92.17;94681.78;4937174;29;20203;-83
2023/07/05 03:19:59;;;;;;;14.98;8.57;;;;;;;21.02;92.25;94707.09;4937442;29;20635;-83
2023/07/05 03:22:25;;;;;;;18.40;9.75;;;;;;;20.75;92.21;94663.97;4937106;29;20628;-82
2023/07/05 03:24:51;;;;;;;18.17;8.57;;;;;;;20.92;92.44;94709.06;4937078;29;20171;-82
2023/07/05 03:27:17;;;;;;;12.82;8.55;;;;;;;20.97;92.84;94711.69;4937537;29;20159;-81
2023/07/05 03:29:43;;;;;;;12.38;8.40;;;;;;;21.03;93.24;94721.25;4936964;29;20159;-81
2023/07/05 03:32:08;;;;;;;13.23;8.07;;;;;;;21.13;93.81;94712.38;4937250;29;20171;-82
2023/07/05 03:34:33;;;;;;;12.15;8.93;;;;;;;21.22;93.03;94714.19;4936872;29;20187;-82
2023/07/05 03:36:59;;;;;;;11.65;8.90;;;;;;;21.15;92.76;94675.41;4936711;29;20273;-81
2023/07/05 03:39:24;;;;;;;18.40;9.65;;;;;;;21.49;92.48;94707.53;4935879;29;20214;-82
2023/07/05 03:41:50;;;;;;;15.10;9.57;;;;;;;21.58;90.91;94711.19;4935764;29;20159;-82
2023/07/05 03:44:15;;;;;;;13.43;8.93;;;;;;;21.75;91.36;94711.56;4936424;29;20174;-82
2023/07/05 03:46:42;;;;;;;14.80;9.05;;;;;;;21.95;89.27;94724.75;4951319;29;20163;-82
2023/07/05 03:49:08;;;;;;;16.13;8.77;;;;;;;21.83;89.58;94682.25;4936730;29;20291;-82
2023/07/05 03:51:34;;;;;;;13.77;8.40;;;;;;;22.27;88.43;94717.97;4935875;29;20269;-82
2023/07/05 03:54:00;;;;;;;15.23;7.90;;;;;;;22.59;88.34;94742.25;4936071;29;20243;-82
2023/07/05 03:56:27;;;;;;;12.82;8.65;;;;;;;22.58;87.42;94713.81;4935965;29;20254;-83
2023/07/05 03:58:53;;;;;;;14.02;8.90;;;;;;;23.02;86.69;94747.59;4936430;29;20183;-84
2023/07/05 04:01:22;;;;;;;12.80;7.97;;;;;;;23.17;85.05;94742.00;4936426;29;20190;-83
2023/07/05 04:03:50;;;;;;;12.23;8.80;;;;;;;23.14;84.45;94718.41;4936671;29;20171;-84
2023/07/05 04:06:17;;;;;;;11.32;7.93;;;;;;;23.21;84.15;94705.38;4935128;29;20167;-84
2023/07/05 04:08:42;;;;;;;20.55;8.13;;;;;;;23.18;83.26;94689.84;4934766;29;20227;-84
2023/07/05 04:11:09;;;;;;;16.73;8.77;;;;;;;23.11;82.20;94673.31;4935998;29;20191;-84
2023/07/05 04:13:34;;;;;;;12.65;8.52;;;;;;;23.57;82.36;94751.31;4950849;29;20213;-84
2023/07/05 04:16:02;;;;;;;15.55;7.78;;;;;;;23.66;81.93;94754.94;4950793;29;20183;-85
2023/07/05 04:18:29;;;;;;;13.80;8.27;;;;;;;23.60;81.06;94745.38;4936120;29;20175;-85
2023/07/05 04:20:55;;;;;;;16.15;8.15;;;;;;;23.60;81.88;94754.22;4936195;29;20583;-85
2023/07/05 04:23:21;;;;;;;16.08;8.55;;;;;;;23.77;82.64;94753.66;4936000;29;20167;-85
2023/07/05 04:25:46;;;;;;;10.80;8.35;;;;;;;23.65;80.96;94718.38;4936211;29;20159;-83
2023/07/05 04:28:12;;;;;;;17.52;8.07;;;;;;;23.70;79.73;94721.75;4935867;29;20174;-85
2023/07/05 04:30:37;;;;;;;14.07;8.40;;;;;;;23.75;79.86;94741.59;4936133;29;20257;-84
2023/07/05 04:33:02;;;;;;;11.85;8.57;;;;;;;23.84;80.64;94739.84;4936151;29;20205;-84
2023/07/05 04:35:28;;;;;;;15.43;9.15;;;;;;;23.87;80.28;94715.03;4935602;29;20183;-83
2023/07/05 04:37:53;;;;;;;13.93;8.55;;;;;;;24.34;79.59;94752.34;4935404;29;20199;-82
2023/07/05 04:40:21;;;;;;;16.80;9.00;;;;;;;24.58;77.25;94764.78;4935755;29;21027;-82
2023/07/05 04:42:46;;;;;;;13.60;9.13;;;;;;;24.75;76.80;94770.34;4935812;29;20254;-82
2023/07/05 04:45:11;;;;;;;12.48;9.20;;;;;;;24.91;77.02;94766.25;4935803;29;20262;-82
2023/07/05 04:47:37;;;;;;;12.40;8.52;;;;;;;25.15;76.07;94777.59;4935987;29;20253;-81
2023/07/05 04:50:03;;;;;;;12.60;8.30;;;;;;;25.27;74.99;94773.53;4936028;29;20635;-82
2023/07/05 04:52:28;;;;;;;11.65;8.32;;;;;;;25.47;75.43;94781.97;4935316;29;20183;-82
2023/07/05 04:54:54;;;;;;;10.77;8.18;;;;;;;25.66;74.08;94773.72;4934991;29;20563;-81
2023/07/05 04:57:19;;;;;;;19.02;9.65;;;;;;;25.89;73.08;94782.59;4935169;29;20178;-81
2023/07/05 04:59:45;;;;;;;17.83;9.10;;;;;;;25.91;71.27;94756.91;4935189;29;20265;-82
2023/07/05 05:02:10;;;;;;;12.10;8.43;;;;;;;26.33;70.07;94783.63;4935395;29;20183;-82
2023/07/05 05:04:36;;;;;;;11.88;8.55;;;;;;;26.45;69.47;94763.03;4935018;29;20203;-81
2023/07/05 05:07:02;;;;;;;13.73;8.10;;;;;;;26.86;68.65;94796.97;4934976;29;20179;-82
2023/07/05 05:09:28;;;;;;;10.23;7.30;;;;;;;27.10;67.74;94785.75;4934878;29;20730;-82
2023/07/05 05:11:54;;;;;;;13.00;8.95;;;;;;;27.27;66.04;94780.38;4935099;29;20178;-82
2023/07/05 05:14:19;;;;;;;11.82;8.60;;;;;;;27.65;66.63;94805.72;4935336;29;20190;-82
2023/07/05 05:16:44;;;;;;;12.35;8.88;;;;;;;27.96;65.03;94793.88;4934733;29;20187;-82
2023/07/05 05:19:10;;;;;;;11.63;8.20;;;;;;;28.13;63.97;94777.59;4934931;29;20265;-82
2023/07/05 05:21:35;;;;;;;13.38;8.52;;;;;;;28.53;64.25;94786.25;4934863;29;20175;-82
2023/07/05 05:24:00;;;;;;;14.20;8.00;;;;;;;28.86;62.42;94795.34;4934795;29;20163;-82
2023/07/05 05:26:26;;;;;;;15.75;8.60;;;;;;;29.29;62.63;94802.41;4935242;29;20740;-82
2023/07/05 05:28:51;;;;;;;17.02;9.02;;;;;;;29.72;60.75;94799.38;4949641;29;20269;-82
2023/07/05 05:31:17;;;;;;;13.55;9.65;;;;;;;29.96;59.09;94793.28;4935235;29;20242;-82
2023/07/05 05:33:42;;;;;;;13.98;8.02;;;;;;;30.41;58.07;94798.69;4935113;29;20250;-82
2023/07/05 05:36:07;;;;;;;13.00;8.60;;;;;;;30.48;57.26;94793.50;4934879;29;20179;-82
2023/07/05 05:38:35;;;;;;;13.48;8.93;;;;;;;30.66;55.65;94777.78;4935095;29;20165;-82
2023/07/05 05:41:03;;;;;;;12.27;8.55;;;;;;;31.10;54.56;94801.38;4934713;29;20183;-82
2023/07/05 05:43:29;;;;;;;16.40;9.15;;;;;;;30.72;53.96;94779.16;4935051;29;20666;-82
2023/07/05 05:45:54;;;;;;;18.58;11.68;;;;;;;30.33;55.21;94783.28;4934839;29;20183;-84
2023/07/05 05:48:19;;;;;;;15.15;9.18;;;;;;;30.62;55.43;94799.41;4934724;29;20201;-82
2023/07/05 05:50:46;;;;;;;17.85;11.82;;;;;;;30.77;55.95;94799.88;4934752;29;20214;-82
2023/07/05 05:53:12;;;;;;;16.85;9.75;;;;;;;30.96;55.07;94797.41;4934641;29;20222;-82
2023/07/05 05:55:38;;;;;;;15.27;10.02;;;;;;;31.13;55.29;94794.47;4934633;29;20195;-82
2023/07/05 05:58:05;;;;;;;18.90;11.60;;;;;;;31.41;53.57;94810.81;4934670;29;20163;-82
2023/07/05 06:00:30;;;;;;;13.00;9.70;;;;;;;31.38;53.81;94793.28;4934536;29;20261;-82
2023/07/05 06:02:57;;;;;;;16.38;10.68;;;;;;;30.83;53.58;94774.84;4934099;29;20270;-82
2023/07/05 06:05:23;;;;;;;12.30;9.98;;;;;;;30.83;56.88;94788.44;4937127;29;20211;-83
2023/07/05 06:07:48;;;;;;;12.20;9.65;;;;;;;30.90;54.38;94775.06;4938088;29;20563;-83
2023/07/05 06:10:13;;;;;;;14.02;9.25;;;;;;;30.93;56.71;94768.94;4936891;29;20226;-85
2023/07/05 06:12:41;;;;;;;16.25;10.93;;;;;;;30.91;54.17;94786.72;4938082;29;20242;-84
2023/07/05 06:15:09;;;;;;;14.23;9.05;;;;;;;31.02;56.58;94769.63;4938306;29;20266;-84
2023/07/05 06:17:34;;;;;;;14.27;9.15;;;;;;;31.41;57.21;94787.13;4935515;29;20198;-84
2023/07/05 06:19:59;;;;;;;14.45;9.70;;;;;;;31.23;55.16;94757.81;4938116;29;20234;-84
2023/07/05 06:22:26;;;;;;;14.25;9.50;;;;;;;31.55;54.41;94785.97;4938065;29;20207;-84
2023/07/05 06:24:51;;;;;;;16.33;9.68;;;;;;;31.31;53.63;94786.84;4938031;29;20167;-84
2023/07/05 06:27:17;;;;;;;15.75;10.57;;;;;;;30.95;53.84;94765.91;4938287;29;20178;-88
2023/07/05 06:29:42;;;;;;;17.75;10.10;;;;;;;30.49;54.30;94732.56;4938036;29;20667;-88
2023/07/05 06:32:08;;;;;;;17.90;8.93;;;;;;;30.58;57.05;94756.94;4938167;29;20605;-88
2023/07/05 06:34:33;;;;;;;19.00;10.27;;;;;;;30.51;55.41;94733.06;4938847;29;20223;-91
2023/07/05 06:36:58;;;;;;;16.25;9.32;;;;;;;30.71;57.26;94729.41;4938001;29;20183;-96
2023/07/05 06:39:24;;;;;;;12.57;9.00;;;;;;;30.77;53.99;94740.06;4938191;29;20639;-96
2023/07/05 06:41:49;;;;;;;12.45;8.98;;;;;;;30.62;55.54;94736.09;4937976;29;20163;-96
2023/07/05 06:44:21;;;;;;;17.73;9.73;;;;;;;30.71;55.02;94721.25;4938180;29;20174;-96
2023/07/05 06:46:46;;;;;;;14.18;10.43;;;;;;;30.76;53.78;94731.13;4938237;29;20175;-91
2023/07/05 06:49:12;;;;;;;15.00;9.45;;;;;;;30.29;54.06;94701.66;4937200;29;20549;-92
2023/07/05 06:51:37;;;;;;;10.43;8.20;;;;;;;30.69;56.43;94728.97;4937105;29;20171;-87
2023/07/05 06:54:02;;;;;;;15.18;9.63;;;;;;;30.87;55.04;94724.09;4938209;29;20202;-91
2023/07/05 06:56:28;;;;;;;13.50;8.77;;;;;;;31.22;54.90;94726.31;4952732;29;20170;-90
2023/07/05 06:58:53;;;;;;;15.70;9.32;;;;;;;31.25;55.10;94709.28;4938123;29;20187;-90
2023/07/05 07:01:19;;;;;;;18.30;9.25;;;;;;;31.53;55.52;94733.78;4936546;29;20587;-91
2023/07/05 07:03:44;;;;;;;12.73;8.13;;;;;;;31.79;51.81;94740.41;4952355;29;20179;-88
2023/07/05 07:06:10;;;;;;;13.80;8.90;;;;;;;31.73;51.72;94711.84;4937879;29;20563;-93
2023/07/05 07:08:38;;;;;;;12.68;9.00;;;;;;;31.38;53.01;94656.41;4952651;29;20231;-88
2023/07/05 07:11:05;;;;;;;12.52;8.88;;;;;;;32.11;52.68;94760.31;4937748;29;20167;-91
2023/07/05 07:13:32;;;;;;;13.13;7.88;;;;;;;32.16;53.94;94759.31;4937711;29;20199;-86
2023/07/05 07:16:03;;;;;;;11.23;7.20;;;;;;;32.32;50.74;94760.09;4936850;29;20619;-89
2023/07/05 07:18:28;;;;;;;14.43;7.63;;;;;;;31.17;49.16;94710.22;4936106;29;20587;-91
2023/07/05 07:20:55;;;;;;;10.57;7.05;;;;;;;30.96;51.51;94751.94;4936503;29;20179;-91
2023/07/05 07:23:21;;;;;;;10.10;7.00;;;;;;;30.84;52.31;94751.97;4951925;29;20187;-84
2023/07/05 07:25:46;;;;;;;10.38;6.80;;;;;;;30.73;51.03;94697.25;4937320;29;20163;-83
2023/07/05 07:28:12;;;;;;;8.70;6.78;;;;;;;30.85;51.12;94712.75;4937591;29;20151;-87
2023/07/05 07:30:37;;;;;;;15.13;7.40;;;;;;;30.52;51.34;94703.97;4937097;29;20781;-87
2023/07/05 07:33:05;;;;;;;8.68;7.03;;;;;;;30.87;52.05;94704.25;4936725;29;20286;-84
2023/07/05 07:35:31;;;;;;;9.80;6.40;;;;;;;31.42;52.31;94744.38;4936785;29;20182;-89
2023/07/05 07:37:56;;;;;;;9.70;6.85;;;;;;;31.76;51.89;94749.25;4936677;29;20171;-84
2023/07/05 07:40:21;;;;;;;11.75;6.88;;;;;;;31.71;49.95;94729.66;4936919;29;20255;-83
2023/07/05 07:42:49;;;;;;;8.73;6.50;;;;;;;31.83;52.11;94699.63;4936845;29;20175;-87
2023/07/05 07:45:14;;;;;;;10.85;6.60;;;;;;;32.28;49.65;94714.81;4936712;29;20238;-86
2023/07/05 07:47:39;;;;;;;11.05;6.35;;;;;;;32.04;50.21;94743.00;4951296;29;20183;-85
2023/07/05 07:50:05;;;;;;;8.43;7.32;;;;;;;32.31;50.64;94749.56;4936592;29;20238;-85
2023/07/05 07:52:31;;;;;;;13.20;7.63;;;;;;;31.62;50.63;94694.44;4936481;29;20183;-88
2023/07/05 07:54:56;;;;;;;10.88;7.43;;;;;;;31.46;49.80;94704.44;4935306;29;20294;-88
2023/07/05 07:57:22;;;;;;;9.43;7.05;;;;;;;31.32;51.68;94704.03;4935198;29;20893;-88
2023/07/05 07:59:47;;;;;;;12.13;6.95;;;;;;;31.15;51.51;94682.56;4951125;29;20198;-88
2023/07/05 08:02:14;;;;;;;10.55;7.78;;;;;;;31.39;54.39;94728.75;4937060;29;20170;-83
2023/07/05 08:04:44;;;;;;;12.65;6.55;;;;;;;31.36;55.38;94716.63;4936307;29;20176;-87
2023/07/05 08:07:10;;;;;;;9.25;6.57;;;;;;;31.30;52.79;94703.63;4936694;29;20687;-88
2023/07/05 08:09:36;;;;;;;9.38;7.07;;;;;;;31.63;52.73;94736.06;4934847;29;20235;-88
2023/07/05 08:12:01;;;;;;;17.77;7.72;;;;;;;31.66;52.94;94746.22;4950927;29;20183;-89
2023/07/05 08:14:28;;;;;;;9.93;6.75;;;;;;;31.41;50.72;94729.19;4935082;29;20290;-90
2023/07/05 08:16:53;;;;;;;11.20;6.03;;;;;;;30.94;52.65;94697.09;4934361;29;20183;-88
2023/07/05 08:19:20;;;;;;;10.60;7.15;;;;;;;30.47;52.66;94679.69;4933394;29;20176;-88
2023/07/05 08:21:46;;;;;;;7.63;6.22;;;;;;;30.81;54.87;94736.31;4933008;29;20644;-88
2023/07/05 08:24:13;;;;;;;9.82;6.85;;;;;;;30.74;52.97;94731.47;4947900;29;20632;-87
2023/07/05 08:26:39;;;;;;;7.38;5.95;;;;;;;30.31;52.87;94690.44;4948084;29;20179;-87
2023/07/05 08:29:04;;;;;;;13.32;7.03;;;;;;;30.33;53.89;94728.94;4947201;28;20709;-88
2023/07/05 08:31:30;;;;;;;8.52;6.85;;;;;;;30.17;57.01;94706.31;4931431;29;20182;-88
2023/07/05 08:33:56;;;;;;;8.15;6.68;;;;;;;30.12;54.75;94685.56;4947810;29;20218;-87
2023/07/05 08:36:36;;;;;;;9.88;7.43;;;;;;;30.48;58.39;94732.91;4932415;29;20183;-87
2023/07/05 08:39:05;;;;;;;7.55;6.47;;;;;;;30.32;56.84;94690.13;4932710;29;20248;-88
2023/07/05 08:41:43;;;;;;;10.02;6.78;;;;;;;30.63;54.65;94738.47;4934088;29;20187;-88
2023/07/05 08:44:22;;;;;;;10.98;7.40;;;;;;;30.50;53.96;94723.28;4933992;29;20245;-87
2023/07/05 08:47:36;;;;;;;14.50;7.43;;;;;;;30.24;55.55;94711.97;4933926;29;20183;-88
2023/07/05 08:50:21;;;;;;;12.50;6.97;;;;;;;30.08;56.16;94700.19;4931260;29;20267;-88
2023/07/05 08:52:47;;;;;;;8.48;6.78;;;;;;;30.03;55.74;94701.16;4930071;29;20187;-88
2023/07/05 08:55:22;;;;;;;11.52;7.20;;;;;;;30.09;55.56;94715.34;4933832;29;20183;-88
2023/07/05 08:57:53;;;;;;;9.95;7.72;;;;;;;29.94;55.55;94692.34;4932393;29;20182;-88
2023/07/05 09:00:34;;;;;;;8.13;6.70;;;;;;;30.02;56.27;94694.16;5110440;27;20550;-87
2023/07/05 09:03:00;;;;;;;11.48;6.65;;;;;;;29.79;55.25;94663.09;5121475;27;20326;-88
2023/07/05 09:05:34;;;;;;;7.72;6.38;;;;;;;29.87;56.56;94711.88;5108006;28;20714;-87
2023/07/05 09:08:24;;;;;;;7.45;6.60;;;;;;;29.66;57.05;94669.66;5107842;28;20183;-87
2023/07/05 09:10:55;;;;;;;15.05;6.65;;;;;;;29.92;56.57;94694.59;5107722;28;20173;-87
2023/07/05 09:13:37;;;;;;;10.07;7.68;;;;;;;29.59;56.99;94665.53;5118062;28;20176;-87
2023/07/05 09:16:08;;;;;;;7.95;6.15;;;;;;;29.81;56.43;94696.13;5118999;27;20179;-87
2023/07/05 09:19:06;;;;;;;8.00;6.55;;;;;;;29.63;57.43;94677.31;5128881;27;20203;-87
2023/07/05 09:21:36;;;;;;;14.35;7.38;;;;;;;29.58;57.34;94650.38;5102136;27;20220;-87
2023/07/05 09:24:08;;;;;;;10.60;6.95;;;;;;;29.64;56.98;94651.78;5128538;27;20550;-87
2023/07/05 09:26:46;;;;;;;7.68;6.55;;;;;;;29.85;56.20;94678.81;5126351;28;20181;-84
2023/07/05 09:29:22;;;;;;;9.32;6.40;;;;;;;29.44;55.99;94630.91;5108253;28;20252;-86
2023/07/05 09:31:49;;;;;;;11.98;7.30;;;;;;;29.57;56.37;94670.53;5107815;28;20176;-86
2023/07/05 09:34:32;;;;;;;8.82;6.95;;;;;;;29.23;56.37;94649.13;5107578;28;20219;-87
2023/07/05 09:37:00;;;;;;;9.15;6.35;;;;;;;28.90;56.25;94621.97;5106339;28;20263;-87
2023/07/05 09:40:10;;;;;;;7.28;5.97;;;;;;;28.84;57.66;94629.53;5123116;28;20207;-87
2023/07/05 09:42:44;;;;;;;12.18;6.63;;;;;;;28.95;59.38;94635.34;5120166;27;20185;-88
2023/07/05 09:45:14;;;;;;;8.93;6.40;;;;;;;28.78;58.04;94630.06;5110346;28;20229;-87
2023/07/05 09:47:41;;;;;;;10.32;6.85;;;;;;;28.84;59.51;94643.09;5111380;27;20178;-87
2023/07/05 09:50:16;;;;;;;12.50;6.65;;;;;;;28.77;58.29;94626.56;5117718;27;20263;-87
2023/07/05 09:52:44;;;;;;;8.75;6.78;;;;;;;29.08;56.80;94679.56;5110670;28;20173;-88
2023/07/05 09:55:13;;;;;;;7.57;6.28;;;;;;;28.67;57.16;94609.88;5106066;28;20655;-87
2023/07/05 09:57:42;;;;;;;7.75;6.10;;;;;;;28.84;56.89;94642.28;5113483;28;20189;-84
2023/07/05 10:00:31;;;;;;;13.02;6.88;;;;;;;28.98;57.88;94666.41;5108854;28;20593;-83
2023/07/05 10:03:05;;;;;;;6.13;5.25;;;;;;;28.64;57.33;94618.66;5108370;28;20158;-83
2023/07/05 10:05:31;;;;;;;7.15;6.45;;;;;;;28.85;57.58;94669.06;5108127;28;20210;-82
2023/07/05 10:07:59;;;;;;;10.45;6.57;;;;;;;28.92;57.79;94673.94;5115950;28;20172;-84
2023/07/05 10:10:35;;;;;;;9.18;6.70;;;;;;;28.67;57.76;94632.34;5105098;27;20207;-83
2023/07/05 10:13:04;;;;;;;7.80;5.93;;;;;;;28.68;58.16;94642.06;5115068;28;20145;-83
2023/07/05 10:15:30;;;;;;;13.57;6.45;;;;;;;28.95;57.56;94673.28;5102856;28;20649;-83
2023/07/05 10:17:57;;;;;;;19.45;7.60;;;;;;;28.77;57.59;94628.47;5102478;28;20249;-84
2023/07/05 10:20:37;;;;;;;8.70;5.93;;;;;;;29.08;56.97;94666.00;5111475;28;20197;-83
2023/07/05 10:23:17;;;;;;;7.63;6.25;;;;;;;28.89;57.86;94620.38;5094533;28;20205;-86
2023/07/05 10:25:44;;;;;;;7.65;6.65;;;;;;;28.99;59.14;94636.25;5079336;28;20203;-83
2023/07/05 10:28:17;;;;;;;9.45;6.07;;;;;;;28.97;58.69;94607.91;5100422;28;20266;-85
2023/07/05 10:30:54;;;;;;;10.70;6.28;;;;;;;29.32;57.34;94640.91;5094509;28;20173;-85
2023/07/05 10:33:31;;;;;;;9.63;6.88;;;;;;;29.23;57.01;94606.50;5095342;28;20168;-86
2023/07/05 10:36:05;;;;;;;8.60;6.22;;;;;;;29.63;57.59;94652.91;5105335;28;20178;-86
2023/07/05 10:38:44;;;;;;;10.15;7.00;;;;;;;29.76;56.71;94652.91;5114102;28;20263;-87
2023/07/05 10:41:18;;;;;;;6.65;5.80;;;;;;;29.83;56.60;94645.03;5115351;28;20168;-85
2023/07/05 10:43:51;;;;;;;9.52;6.65;;;;;;;29.85;56.79;94656.31;5112835;28;20175;-87
2023/07/05 10:46:21;;;;;;;9.30;6.55;;;;;;;29.59;55.83;94646.53;5114320;28;20214;-83
2023/07/05 10:48:48;;;;;;;8.43;5.40;;;;;;;28.85;55.10;94552.50;5130223;27;20165;-83
2023/07/05 10:51:20;;;;;;;7.47;5.05;;;;;;;29.42;56.99;94654.06;5114121;28;20246;-85
2023/07/05 10:54:03;;;;;;;11.48;5.18;;;;;;;29.20;56.42;94637.03;5114195;28;20551;-85
2023/07/05 10:56:34;;;;;;;10.70;5.78;;;;;;;29.04;57.21;94632.56;5099231;28;20583;-85
2023/07/05 10:59:29;;;;;;;10.48;6.28;;;;;;;29.12;56.63;94662.31;5094950;28;20225;-83
2023/07/05 11:01:58;;;;;;;6.03;5.43;;;;;;;28.96;55.83;94630.72;5092070;28;20709;-87
2023/07/05 11:04:29;;;;;;;5.78;5.13;;;;;;;29.01;56.38;94649.47;5104923;28;20181;-83
2023/07/05 11:07:00;;;;;;;9.15;5.57;;;;;;;29.09;55.88;94662.16;5105354;28;20176;-85
2023/07/05 11:09:30;;;;;;;8.80;5.72;;;;;;;28.76;56.14;94626.84;5110032;27;20162;-86
2023/07/05 11:12:04;;;;;;;8.65;5.60;;;;;;;28.71;56.64;94635.19;5101003;28;20154;-84
2023/07/05 11:14:30;;;;;;;7.70;5.13;;;;;;;28.57;56.59;94635.44;5106213;28;20226;-85
2023/07/05 11:16:57;;;;;;;7.90;5.43;;;;;;;28.79;56.27;94683.94;5112266;28;20417;-84
2023/07/05 11:19:28;;;;;;;8.93;5.93;;;;;;;28.41;56.71;94631.72;5111444;28;20419;-82
2023/07/05 11:21:53;;;;;;;9.18;5.90;;;;;;;28.69;56.65;94665.34;5096177;28;20215;-83
2023/07/05 11:24:31;;;;;;;8.03;5.20;;;;;;;28.61;58.14;94670.81;5100610;28;20412;-83
2023/07/05 11:26:58;;;;;;;10.65;4.75;;;;;;;28.44;58.73;94658.97;5101586;28;20203;-83
2023/07/05 11:29:26;;;;;;;8.30;5.70;;;;;;;28.46;59.03;94662.13;5111376;28;20449;-83
2023/07/05 11:31:52;;;;;;;9.52;5.53;;;;;;;28.36;59.15;94651.69;5113091;28;20411;-84
2023/07/05 11:34:20;;;;;;;7.45;5.10;;;;;;;28.30;59.50;94644.06;5112683;28;20520;-84
2023/07/05 11:36:46;;;;;;;5.55;4.75;;;;;;;28.29;58.69;94640.56;5111984;28;20169;-83